北海道・東北TAF電文


新千歳(RJCC)
7/14 20h
TAF RJCC 141105Z 1412/1518 17006KT 9999 FEW020 TEMPO 1418/1500
FEW003 BKN006 TEMPO 1515/1518 FEW003 BKN006=

旭川(RJEC)
7/14 20h
TAF RJEC 141105Z 1412/1518 33005KT 9999 FEW020 BECMG 1412/1414
17005KT BECMG 1500/1503 31007KT BECMG 1509/1512 17006KT=

帯広(RJCB)
7/14 20h
TAF RJCB 141105Z 1412/1518 34005KT 7000 FEW003 BKN015 TEMPO
1412/1422 0700 FG VV001 TEMPO 1422/1500 2000 BR FEW002
BKN004 BECMG 1500/1503 13006KT TEMPO 1503/1509 FEW008
BKN025 FEW025CB=

釧路(RJCK)
7/14 20h
TAF RJCK 141107Z 1412/1518 33005KT 7000 FEW003 BKN015 TEMPO
1412/1500 0500 FG VV001 BECMG 1414/1416 19005KT TEMPO
1500/1503 FEW004 BKN006 TEMPO 1503/1512 FEW003 BKN005 TEMPO
1512/1518 0700 FG VV001=

女満別(RJCM)
7/14 20h
TAF RJCM 141107Z 1412/1518 05003KT 9999 FEW005 BKN020 BECMG
1415/1417 20005KT BECMG 1500/1503 05010KT TEMPO 1503/1506
FEW010 BKN025 FEW025CB BECMG 1512/1515 20005KT=

函館(RJCH)
7/14 20h
TAF RJCH 141107Z 1412/1518 05006KT 9999 FEW006 BKN015 TEMPO
1415/1422 4000 BR FEW003 BKN006 BECMG 1421/1423 23006KT
BECMG 1503/1506 14005KT TEMPO 1512/1518 4000 BR FEW005
BKN008 BECMG 1515/1518 34003KT=

青森(RJSA)
7/14 20h
TAF RJSA 141105Z 1412/1518 04004KT 9999 FEW010 BECMG 1414/1416 1500
BR FEW001 BKN003 TEMPO 1415/1500 0300 FG VV001 BECMG
1500/1503 9999 NSW FEW020 TEMPO 1515/1518 1500 BR FEW001
BKN003=

秋田(RJSK)
7/14 20h
TAF RJSK 141105Z 1412/1518 13005KT 9999 FEW015 SCT030 BECMG
1503/1506 26006KT BECMG 1509/1512 12004KT=

花巻(RJSI)
7/14 20h
TAF RJSI 141105Z 1412/1518 16006KT 9999 FEW010 BKN020 TEMPO
1418/1423 FEW005 BKN008=

仙台(RJSS)
7/14 20h
TAF RJSS 141105Z 1412/1518 02004KT 8000 -RA FEW008 BKN015 TEMPO
1412/1415 FEW003 BKN005 TEMPO 1415/1421 4000 RA BR FEW003
BKN005=

福島(RJSF)
7/14 20h
TAF RJSF 141105Z 1412/1518 36004KT 4000 -RA BR FEW005 BKN008 TEMPO
1412/1422 0700 -RA FG FEW001 BKN003 TEMPO 1422/1503 1500 RA
BR FEW001 BKN003 BECMG 1503/1506 9999 NSW FEW020=
Copyright(c) 2014 International Meteorological & Oceanographic Consultants Co,.Ltd. All Rights Reserved. Design by http://f-tpl.com